Time;durP1;ratioP1;P1;durP2;ratioP2;P2;SDS_P1;SDS_P2;PMS_P1;PMS_P2;Temp;Humidity;BMP_temperature;BMP_pressure;BME280_temperature;BME280_humidity;BME280_pressure;Samples;Min_cycle;Max_cycle;Signal;HPM_P1;HPM_P2
2022/04/14 00:00:49;;;;;;;3.70;0.90;;;20.60;99.90;;;;;;5065323;28;20891;-82
2022/04/14 00:03:16;;;;;;;4.03;0.80;;;21.10;99.90;;;;;;5053188;28;20839;-82
2022/04/14 00:05:43;;;;;;;4.33;0.90;;;21.30;99.90;;;;;;5059141;28;20422;-82
2022/04/14 00:08:10;;;;;;;2.85;0.80;;;21.30;99.90;;;;;;5072745;28;20389;-82
2022/04/14 00:10:37;;;;;;;4.38;0.80;;;21.10;99.90;;;;;;5061031;28;20395;-82
2022/04/14 00:13:04;;;;;;;3.10;0.90;;;20.80;99.90;;;;;;5052835;28;20372;-82
2022/04/14 00:15:31;;;;;;;6.80;1.25;;;20.60;99.90;;;;;;5056864;28;20394;-83
2022/04/14 00:17:58;;;;;;;5.57;1.10;;;20.50;99.90;;;;;;5072728;28;20861;-82
2022/04/14 00:20:25;;;;;;;3.85;0.80;;;20.50;99.90;;;;;;5070787;28;20392;-83
2022/04/14 00:22:52;;;;;;;4.53;0.90;;;20.70;99.90;;;;;;5069560;28;20391;-83
2022/04/14 00:25:19;;;;;;;3.67;0.90;;;21.00;99.90;;;;;;5052661;28;20411;-82
2022/04/14 00:27:46;;;;;;;3.55;0.90;;;21.20;99.90;;;;;;5052594;28;20376;-82
2022/04/14 00:30:13;;;;;;;1.92;0.82;;;21.60;99.90;;;;;;5062132;28;20390;-82
2022/04/14 00:32:40;;;;;;;2.80;0.90;;;21.80;99.90;;;;;;5070484;28;20402;-82
2022/04/14 00:35:08;;;;;;;3.22;0.90;;;22.00;99.90;;;;;;5063919;28;20395;-82
2022/04/14 00:37:35;;;;;;;2.85;1.00;;;21.90;99.90;;;;;;5072435;28;20378;-81
2022/04/14 00:40:02;;;;;;;4.10;0.90;;;21.80;99.90;;;;;;5072501;28;20392;-81
2022/04/14 00:42:29;;;;;;;4.77;0.80;;;21.60;99.90;;;;;;5072352;28;20370;-81
2022/04/14 00:44:56;;;;;;;2.60;0.80;;;21.60;99.90;;;;;;5055145;28;20764;-81
2022/04/14 00:47:23;;;;;;;4.25;1.00;;;21.70;99.90;;;;;;5052215;28;20855;-82
2022/04/14 00:49:50;;;;;;;3.55;1.17;;;22.00;99.90;;;;;;5061041;28;20381;-81
2022/04/14 00:52:17;;;;;;;3.83;0.90;;;22.00;99.90;;;;;;5072199;28;20378;-81
2022/04/14 00:54:44;;;;;;;3.30;0.80;;;21.80;99.90;;;;;;5060982;28;20411;-82
2022/04/14 00:57:11;;;;;;;2.73;0.93;;;22.10;99.90;;;;;;5070332;28;20385;-82
2022/04/14 00:59:38;;;;;;;3.88;0.90;;;22.50;99.90;;;;;;5035465;28;20464;-81
2022/04/14 01:02:06;;;;;;;3.15;0.90;;;22.80;99.90;;;;;;5071967;28;20454;-82
2022/04/14 01:04:33;;;;;;;4.05;0.90;;;23.00;99.90;;;;;;5071639;28;20422;-82
2022/04/14 01:07:00;;;;;;;2.85;0.80;;;23.00;99.90;;;;;;5071720;28;20799;-81
2022/04/14 01:09:29;;;;;;;3.63;1.00;;;22.80;99.90;;;;;;5058104;28;20383;-82
2022/04/14 01:11:57;;;;;;;2.58;0.80;;;22.90;99.90;;;;;;5051947;28;20380;-82
2022/04/14 01:14:28;;;;;;;5.70;1.00;;;23.10;99.90;;;;;;5051895;28;20408;-82
2022/04/14 01:16:57;;;;;;;1.95;0.80;;;23.30;99.90;;;;;;5051560;28;20403;-82
2022/04/14 01:19:24;;;;;;;2.28;0.90;;;23.40;99.90;;;;;;5051588;28;20498;-83
2022/04/14 01:22:18;;;;;;;4.28;1.13;;;23.80;99.90;;;;;;5051556;28;20403;-83
2022/04/14 01:24:45;;;;;;;4.40;0.98;;;23.80;99.80;;;;;;5041444;28;20423;-82
2022/04/14 01:27:12;;;;;;;2.40;0.80;;;23.80;99.70;;;;;;5051517;28;20847;-82
2022/04/14 01:29:39;;;;;;;4.00;1.05;;;23.70;99.40;;;;;;5051304;28;20376;-82
2022/04/14 01:32:06;;;;;;;3.55;0.90;;;23.50;99.90;;;;;;5051363;28;20423;-82
2022/04/14 01:34:36;;;;;;;2.70;0.80;;;23.40;99.20;;;;;;5050476;28;21615;-82
2022/04/14 01:37:03;;;;;;;2.47;0.73;;;23.20;99.90;;;;;;5051141;28;20384;-83
2022/04/14 01:39:31;;;;;;;4.38;0.95;;;23.20;99.90;;;;;;5051162;28;20391;-83
2022/04/14 01:41:58;;;;;;;4.55;0.90;;;23.30;99.90;;;;;;5050080;28;20380;-84
2022/04/14 01:44:25;;;;;;;1.67;0.80;;;23.10;99.90;;;;;;5051007;28;20398;-83
2022/04/14 01:46:52;;;;;;;3.53;1.00;;;22.90;99.90;;;;;;5050954;28;20396;-82
2022/04/14 01:49:19;;;;;;;3.22;0.82;;;22.90;99.90;;;;;;5050870;28;20380;-83
2022/04/14 01:51:48;;;;;;;2.65;0.98;;;23.00;99.90;;;;;;5050860;28;20391;-83
2022/04/14 01:54:15;;;;;;;3.03;0.80;;;23.10;99.90;;;;;;5050748;28;20372;-83
2022/04/14 01:56:42;;;;;;;4.45;1.25;;;23.10;99.90;;;;;;5050717;28;20379;-83
2022/04/14 01:59:10;;;;;;;3.05;1.05;;;23.00;99.90;;;;;;5050786;28;20376;-83
2022/04/14 02:01:37;;;;;;;3.67;0.95;;;22.90;99.90;;;;;;5032960;28;20384;-82
2022/04/14 02:04:07;;;;;;;2.92;1.10;;;22.80;99.90;;;;;;5050602;28;20376;-82
2022/04/14 02:06:35;;;;;;;4.53;0.98;;;22.70;99.90;;;;;;5050824;28;20892;-82
2022/04/14 02:09:02;;;;;;;2.80;0.85;;;22.60;99.90;;;;;;5050803;28;20372;-82
2022/04/14 02:11:29;;;;;;;3.83;0.98;;;22.50;99.90;;;;;;5050643;28;20410;-82
2022/04/14 02:13:55;;;;;;;3.05;0.90;;;22.40;99.90;;;;;;5050559;28;20455;-82
2022/04/14 02:16:22;;;;;;;3.85;0.90;;;22.30;99.90;;;;;;5050610;28;20899;-82
2022/04/14 02:18:50;;;;;;;2.37;0.90;;;22.20;99.90;;;;;;5050525;28;20376;-82
2022/04/14 02:21:16;;;;;;;5.53;1.00;;;22.20;99.90;;;;;;5050513;28;20361;-82
2022/04/14 02:23:43;;;;;;;2.85;0.90;;;22.10;99.90;;;;;;5050464;28;20433;-82
2022/04/14 02:26:10;;;;;;;3.47;0.82;;;22.00;99.90;;;;;;5050245;28;20879;-82
2022/04/14 02:28:37;;;;;;;3.80;1.00;;;22.00;99.90;;;;;;5050531;28;20429;-82
2022/04/14 02:31:04;;;;;;;3.42;0.93;;;21.90;99.90;;;;;;5050301;28;20859;-84
2022/04/14 02:33:31;;;;;;;3.20;0.80;;;22.00;99.90;;;;;;5050318;28;20518;-81
2022/04/14 02:35:58;;;;;;;3.23;0.90;;;22.20;99.90;;;;;;5050260;28;20884;-82
2022/04/14 02:38:25;;;;;;;3.65;0.90;;;22.20;99.90;;;;;;5050308;28;20372;-82
2022/04/14 02:40:52;;;;;;;1.92;0.70;;;22.20;99.90;;;;;;5050157;28;20380;-83
2022/04/14 02:43:21;;;;;;;2.40;0.82;;;22.40;99.90;;;;;;5050250;28;20429;-82
2022/04/14 02:45:48;;;;;;;3.35;0.90;;;22.50;99.90;;;;;;5049924;28;20403;-84
2022/04/14 02:48:15;;;;;;;2.70;0.90;;;22.70;99.90;;;;;;5050170;28;20410;-83
2022/04/14 02:50:43;;;;;;;3.65;0.93;;;22.90;99.90;;;;;;5050124;28;20376;-82
2022/04/14 02:53:11;;;;;;;3.10;0.90;;;23.10;99.90;;;;;;5050954;28;20422;-82
2022/04/14 02:55:38;;;;;;;3.50;0.90;;;23.10;99.90;;;;;;5054285;28;20407;-83
2022/04/14 02:58:05;;;;;;;4.70;0.90;;;23.50;99.90;;;;;;5054312;28;20368;-83
2022/04/14 03:00:32;;;;;;;3.10;0.70;;;24.10;99.90;;;;;;5054067;28;20382;-83
2022/04/14 03:03:00;;;;;;;3.47;0.90;;;24.50;97.80;;;;;;5054264;28;20425;-82
2022/04/14 03:05:27;;;;;;;3.80;0.90;;;24.60;97.00;;;;;;5053710;28;20403;-82
2022/04/14 03:07:54;;;;;;;3.22;0.90;;;25.40;96.30;;;;;;5054185;28;20793;-83
2022/04/14 03:10:21;;;;;;;2.63;0.80;;;27.20;92.00;;;;;;5053827;28;20403;-82
2022/04/14 03:12:49;;;;;;;3.10;0.90;;;28.80;81.80;;;;;;5053956;28;20388;-82
2022/04/14 03:15:17;;;;;;;2.95;0.80;;;29.50;73.70;;;;;;5053895;28;20430;-82
2022/04/14 03:17:45;;;;;;;4.60;0.98;;;30.10;70.10;;;;;;5053875;28;20462;-82
2022/04/14 03:20:12;;;;;;;1.77;0.70;;;30.70;66.10;;;;;;5053737;28;20371;-82
2022/04/14 03:22:39;;;;;;;2.13;0.70;;;30.70;62.50;;;;;;5053793;28;20437;-82
2022/04/14 03:25:08;;;;;;;1.80;0.73;;;31.50;60.40;;;;;;5053457;28;20395;-83
2022/04/14 03:27:38;;;;;;;2.78;0.80;;;31.10;59.40;;;;;;5053740;28;20390;-82
2022/04/14 03:30:07;;;;;;;5.13;0.83;;;30.90;58.90;;;;;;5053799;28;20448;-82
2022/04/14 03:32:40;;;;;;;2.40;0.70;;;30.20;60.60;;;;;;5053356;28;20379;-83
2022/04/14 03:35:08;;;;;;;2.67;0.85;;;29.70;63.40;;;;;;5053673;28;20851;-82
2022/04/14 03:37:35;;;;;;;3.05;0.80;;;29.60;63.10;;;;;;5053415;28;20380;-82
2022/04/14 03:40:02;;;;;;;2.80;0.80;;;29.10;64.40;;;;;;5053406;28;20747;-82
2022/04/14 03:42:29;;;;;;;1.60;0.60;;;29.40;63.50;;;;;;5053393;28;20380;-82
2022/04/14 03:44:58;;;;;;;4.03;0.80;;;29.00;64.00;;;;;;5053101;28;20396;-82
2022/04/14 03:47:26;;;;;;;3.65;0.73;;;27.80;65.80;;;;;;5053323;28;20752;-82
2022/04/14 03:49:53;;;;;;;4.73;0.80;;;27.00;68.40;;;;;;5053272;28;20466;-82
2022/04/14 03:52:20;;;;;;;2.03;0.70;;;26.00;70.50;;;;;;5053231;28;20862;-82
2022/04/14 03:54:47;;;;;;;2.77;0.80;;;26.60;69.70;;;;;;5052970;28;20432;-82
2022/04/14 03:57:14;;;;;;;1.55;0.63;;;28.10;70.00;;;;;;5053055;28;20384;-82
2022/04/14 03:59:41;;;;;;;3.22;0.70;;;30.00;61.60;;;;;;5052980;28;20414;-82
2022/04/14 04:02:08;;;;;;;3.92;0.70;;;31.10;57.50;;;;;;5053026;28;20380;-82
2022/04/14 04:04:35;;;;;;;1.47;0.80;;;31.60;58.70;;;;;;5052104;28;20399;-82
2022/04/14 04:07:02;;;;;;;3.95;0.73;;;32.60;56.60;;;;;;5053058;28;21090;-82
2022/04/14 04:09:32;;;;;;;1.70;0.60;;;33.10;55.50;;;;;;5052836;28;20379;-82
2022/04/14 04:11:59;;;;;;;1.90;0.80;;;33.90;53.60;;;;;;5052854;28;20402;-82
2022/04/14 04:14:26;;;;;;;2.28;0.82;;;34.20;53.10;;;;;;5052797;28;20378;-83
2022/04/14 04:16:53;;;;;;;2.83;0.82;;;34.30;53.50;;;;;;5052508;28;20843;-83
2022/04/14 04:19:20;;;;;;;2.73;0.90;;;32.90;54.10;;;;;;5052921;28;20380;-82
2022/04/14 04:21:46;;;;;;;3.47;1.08;;;30.80;57.60;;;;;;5052558;28;20784;-83
2022/04/14 04:24:13;;;;;;;5.28;1.40;;;28.70;62.20;;;;;;5052659;28;20473;-82
2022/04/14 04:26:40;;;;;;;5.80;1.27;;;27.10;66.90;;;;;;5052202;28;20407;-83
2022/04/14 04:29:07;;;;;;;2.38;1.10;;;26.00;70.60;;;;;;5052587;28;20375;-82
2022/04/14 04:31:34;;;;;;;3.28;1.02;;;25.30;74.40;;;;;;5052440;28;20383;-83
2022/04/14 04:34:01;;;;;;;3.00;1.10;;;24.70;78.00;;;;;;5052336;28;20372;-82
2022/04/14 04:36:28;;;;;;;3.53;1.10;;;24.20;82.90;;;;;;5052250;28;20735;-82
2022/04/14 04:38:58;;;;;;;4.18;0.90;;;23.80;88.30;;;;;;5052476;28;20459;-81
2022/04/14 04:41:25;;;;;;;3.80;0.80;;;23.50;89.70;;;;;;5052201;28;20446;-83
2022/04/14 04:43:52;;;;;;;2.05;0.80;;;23.50;89.50;;;;;;5052259;28;20380;-82
2022/04/14 04:46:19;;;;;;;3.20;0.90;;;23.30;90.60;;;;;;5052032;28;20408;-82
2022/04/14 04:48:46;;;;;;;3.67;0.90;;;23.20;91.80;;;;;;5052184;28;20371;-83
2022/04/14 04:51:13;;;;;;;3.17;0.68;;;23.60;91.90;;;;;;5052132;28;20379;-83
2022/04/14 04:53:39;;;;;;;3.17;0.70;;;25.30;88.30;;;;;;5051936;28;20390;-82
2022/04/14 04:56:06;;;;;;;3.33;0.80;;;27.30;80.30;;;;;;5051800;28;20466;-82
2022/04/14 04:58:33;;;;;;;2.03;0.90;;;28.80;70.20;;;;;;5052031;28;20366;-82
2022/04/14 05:01:00;;;;;;;3.28;0.80;;;29.80;65.40;;;;;;5052074;28;20390;-83
2022/04/14 05:03:27;;;;;;;1.65;0.50;;;30.70;62.00;;;;;;5017402;28;20380;-82
2022/04/14 05:05:54;;;;;;;3.08;0.70;;;31.20;60.60;;;;;;5051708;28;20478;-82
2022/04/14 05:08:21;;;;;;;2.93;0.70;;;31.50;59.10;;;;;;5051879;28;20867;-82
2022/04/14 05:10:48;;;;;;;3.75;0.77;;;31.40;58.50;;;;;;5051751;28;20368;-82
2022/04/14 05:13:15;;;;;;;1.98;0.70;;;31.40;57.70;;;;;;5051638;28;20433;-82
2022/04/14 05:15:43;;;;;;;2.22;0.60;;;30.30;59.00;;;;;;5051424;28;20379;-82
2022/04/14 05:18:10;;;;;;;1.83;0.60;;;29.20;61.60;;;;;;5051628;28;20407;-83
2022/04/14 05:20:38;;;;;;;3.03;0.63;;;27.90;64.40;;;;;;5051739;28;20372;-83
2022/04/14 05:23:11;;;;;;;1.30;0.50;;;26.80;68.40;;;;;;5051442;28;20375;-83
2022/04/14 05:25:40;;;;;;;1.60;0.70;;;26.40;69.80;;;;;;5051557;28;20454;-83
2022/04/14 05:28:07;;;;;;;2.22;0.77;;;26.40;72.00;;;;;;5051189;28;20379;-83
2022/04/14 05:30:37;;;;;;;2.35;0.65;;;27.50;70.40;;;;;;5051457;28;20384;-83
2022/04/14 05:33:10;;;;;;;1.95;0.50;;;28.50;65.80;;;;;;5051256;28;20376;-83
2022/04/14 05:35:40;;;;;;;3.50;0.80;;;28.30;64.00;;;;;;5051248;28;20863;-83
2022/04/14 05:38:07;;;;;;;1.63;0.60;;;27.20;66.80;;;;;;5051121;28;20380;-83
2022/04/14 05:40:35;;;;;;;1.30;0.57;;;26.80;68.20;;;;;;5051297;28;20391;-83
2022/04/14 05:43:02;;;;;;;1.60;0.60;;;27.10;66.30;;;;;;5051081;28;20852;-82
2022/04/14 05:45:30;;;;;;;2.40;0.68;;;26.20;68.30;;;;;;5051099;28;20404;-83
2022/04/14 05:47:56;;;;;;;2.65;0.73;;;25.50;70.60;;;;;;5050985;28;20379;-83
2022/04/14 05:50:23;;;;;;;2.80;0.80;;;24.70;75.60;;;;;;5052718;28;20398;-82
2022/04/14 05:52:50;;;;;;;2.17;0.70;;;25.00;76.90;;;;;;5051047;28;20739;-82
2022/04/14 05:55:17;;;;;;;1.90;0.60;;;25.80;76.00;;;;;;5050868;28;20372;-83
2022/04/14 05:57:44;;;;;;;3.42;0.55;;;27.00;70.90;;;;;;5050721;28;20887;-85
2022/04/14 06:00:13;;;;;;;2.50;0.50;;;27.80;67.00;;;;;;5050849;28;20471;-82
2022/04/14 06:02:41;;;;;;;1.63;0.50;;;27.50;66.40;;;;;;5055691;28;20870;-85
2022/04/14 06:05:08;;;;;;;3.33;0.70;;;26.80;68.20;;;;;;5067523;28;20394;-83
2022/04/14 06:07:35;;;;;;;1.50;0.55;;;26.10;71.20;;;;;;5069519;28;20485;-86
2022/04/14 06:10:02;;;;;;;2.55;0.63;;;25.60;73.40;;;;;;5070623;28;20405;-83
2022/04/14 06:12:29;;;;;;;2.15;0.70;;;25.00;73.90;;;;;;5070862;28;20414;-82
2022/04/14 06:14:56;;;;;;;3.05;0.70;;;24.40;75.40;;;;;;5070510;28;20374;-82
2022/04/14 06:17:23;;;;;;;1.60;0.60;;;24.10;77.00;;;;;;5070687;28;20397;-82
2022/04/14 06:19:50;;;;;;;2.90;0.68;;;24.00;78.30;;;;;;5070446;28;20853;-83
2022/04/14 06:22:17;;;;;;;3.97;0.80;;;24.20;78.70;;;;;;5070931;28;20380;-81
2022/04/14 06:24:44;;;;;;;2.55;0.70;;;24.20;78.70;;;;;;5070547;28;20922;-80
2022/04/14 06:27:11;;;;;;;2.63;0.80;;;24.20;79.00;;;;;;5070692;28;20417;-81
2022/04/14 06:29:38;;;;;;;3.67;0.77;;;24.00;79.40;;;;;;5069976;28;20401;-82
2022/04/14 06:32:05;;;;;;;2.53;0.70;;;23.80;81.50;;;;;;5068790;28;20398;-82
2022/04/14 06:34:45;;;;;;;;;;;;;;;;;;;;;
2022/04/14 06:37:12;;;;;;;3.85;0.80;;;23.30;87.20;;;;;;5068674;28;20384;-81
2022/04/14 06:39:39;;;;;;;2.05;0.80;;;23.30;87.90;;;;;;5067255;28;20383;-82
2022/04/14 06:42:07;;;;;;;2.45;0.57;;;23.20;90.10;;;;;;5051285;28;20794;-83
2022/04/14 06:44:34;;;;;;;1.75;0.60;;;23.10;89.50;;;;;;5050297;28;20380;-84
2022/04/14 06:47:01;;;;;;;3.83;0.60;;;23.10;89.70;;;;;;5051373;28;20410;-83
2022/04/14 06:49:29;;;;;;;2.33;0.55;;;22.90;90.40;;;;;;5050157;28;20391;-82
2022/04/14 06:51:56;;;;;;;2.73;0.60;;;22.90;90.60;;;;;;5050186;28;20403;-82
2022/04/14 06:54:22;;;;;;;2.83;0.60;;;22.70;91.20;;;;;;5050117;28;20482;-83
2022/04/14 06:56:49;;;;;;;1.88;0.50;;;22.50;91.70;;;;;;5050033;28;20471;-83
2022/04/14 06:59:16;;;;;;;1.95;0.55;;;22.20;92.60;;;;;;5050215;28;20367;-83
2022/04/14 07:01:43;;;;;;;4.20;0.60;;;22.10;93.70;;;;;;5058762;28;20390;-82
2022/04/14 07:04:10;;;;;;;2.10;0.70;;;21.90;94.70;;;;;;5054373;28;20391;-82
2022/04/14 07:06:46;;;;;;;3.75;0.70;;;21.70;95.90;;;;;;5055662;28;20891;-82
2022/04/14 07:09:13;;;;;;;4.10;0.93;;;21.60;97.40;;;;;;5044236;28;20385;-79
2022/04/14 07:11:40;;;;;;;3.05;0.70;;;21.50;98.40;;;;;;5057912;28;20395;-79
2022/04/14 07:14:07;;;;;;;3.40;0.77;;;21.60;99.20;;;;;;5040494;28;20482;-79
2022/04/14 07:16:34;;;;;;;2.33;0.60;;;21.50;99.50;;;;;;5049835;28;20429;-82
2022/04/14 07:19:01;;;;;;;1.88;0.70;;;21.50;99.90;;;;;;5052646;28;20391;-78
2022/04/14 07:21:28;;;;;;;3.10;0.70;;;21.40;99.90;;;;;;5056551;28;20387;-84
2022/04/14 07:23:55;;;;;;;2.63;0.50;;;21.30;99.90;;;;;;5049896;28;20383;-82
2022/04/14 07:26:22;;;;;;;2.45;0.60;;;21.20;99.90;;;;;;5050985;28;20779;-83
2022/04/14 07:28:49;;;;;;;2.88;0.60;;;21.10;99.90;;;;;;5068727;28;20386;-82
2022/04/14 07:31:16;;;;;;;2.37;0.60;;;20.90;99.90;;;;;;5062361;28;20390;-83
2022/04/14 07:33:43;;;;;;;4.17;0.70;;;20.70;99.90;;;;;;5068844;28;20374;-78
2022/04/14 07:36:09;;;;;;;2.60;0.75;;;20.60;99.90;;;;;;5066567;28;20386;-82
2022/04/14 07:38:36;;;;;;;3.58;0.90;;;20.40;99.90;;;;;;5066528;28;21022;-80
2022/04/14 07:41:05;;;;;;;3.40;1.05;;;20.30;99.90;;;;;;5058548;28;20391;-80
2022/04/14 07:43:33;;;;;;;3.22;1.20;;;20.20;99.90;;;;;;5065869;28;20382;-80
2022/04/14 07:46:01;;;;;;;3.67;1.10;;;20.10;99.90;;;;;;5066318;28;20407;-80
2022/04/14 07:48:28;;;;;;;2.05;1.02;;;20.00;99.90;;;;;;5060428;28;20385;-80
2022/04/14 07:50:55;;;;;;;2.00;0.90;;;20.00;99.90;;;;;;5071407;28;20754;-81
2022/04/14 07:53:22;;;;;;;4.45;0.98;;;20.00;99.90;;;;;;5060298;28;20534;-82
2022/04/14 07:55:49;;;;;;;3.28;0.85;;;19.90;99.90;;;;;;5052940;28;20380;-82
2022/04/14 07:58:16;;;;;;;4.22;0.90;;;19.80;99.90;;;;;;5055299;28;20393;-82
2022/04/14 08:00:42;;;;;;;2.95;1.00;;;19.70;99.90;;;;;;5063122;28;20897;-78
2022/04/14 08:03:09;;;;;;;19.38;14.70;;;19.70;99.90;;;;;;5053331;28;20380;-80
2022/04/14 08:05:39;;;;;;;79.55;58.95;;;19.60;99.90;;;;;;5062416;28;20773;-82
2022/04/14 08:08:09;;;;;;;83.10;64.05;;;19.50;99.90;;;;;;5056288;28;20387;-80
2022/04/14 08:10:37;;;;;;;78.03;58.20;;;19.50;99.90;;;;;;5052413;28;20395;-82
2022/04/14 08:13:04;;;;;;;63.65;43.28;;;19.40;99.90;;;;;;5040258;28;20878;-78
2022/04/14 08:15:32;;;;;;;17.08;10.60;;;19.30;99.90;;;;;;5059507;28;20404;-80
2022/04/14 08:17:59;;;;;;;11.15;5.65;;;19.20;99.90;;;;;;5053671;28;20383;-80
2022/04/14 08:20:27;;;;;;;6.03;3.05;;;19.10;99.90;;;;;;5054608;28;20466;-80
2022/04/14 08:22:59;;;;;;;6.65;4.10;;;19.00;99.90;;;;;;5052641;28;20437;-87
2022/04/14 08:25:32;;;;;;;8.05;4.20;;;19.00;99.90;;;;;;5052275;28;20461;-79
2022/04/14 08:28:01;;;;;;;6.10;3.20;;;19.00;99.90;;;;;;5072870;28;20453;-84
2022/04/14 08:30:31;;;;;;;8.82;4.20;;;18.90;99.90;;;;;;5071886;28;20774;-83
2022/04/14 08:33:03;;;;;;;5.85;2.70;;;18.90;99.90;;;;;;5052536;28;20388;-83
2022/04/14 08:35:32;;;;;;;7.55;3.10;;;18.90;99.90;;;;;;5071460;28;20435;-82
2022/04/14 08:38:08;;;;;;;7.25;4.05;;;18.90;99.90;;;;;;5072261;28;20368;-85
2022/04/14 08:40:37;;;;;;;9.27;3.88;;;18.90;99.90;;;;;;5054669;28;20402;-84
2022/04/14 08:43:09;;;;;;;7.07;3.92;;;18.90;99.90;;;;;;5053985;28;20383;-82
2022/04/14 08:45:44;;;;;;;5.75;3.30;;;18.90;99.90;;;;;;5052137;28;20490;-80
2022/04/14 08:48:20;;;;;;;6.80;2.53;;;18.90;99.90;;;;;;5052172;28;20844;-81
2022/04/14 08:50:50;;;;;;;4.80;2.45;;;18.80;99.90;;;;;;5061982;28;20405;-79
2022/04/14 08:53:20;;;;;;;4.78;2.20;;;18.80;99.90;;;;;;5053734;28;20378;-79
2022/04/14 08:55:48;;;;;;;7.13;2.30;;;18.70;99.90;;;;;;5071983;28;20467;-79
2022/04/14 08:58:18;;;;;;;4.45;1.95;;;18.70;99.90;;;;;;5053998;28;20409;-87
2022/04/14 09:00:46;;;;;;;5.75;2.20;;;18.60;99.90;;;;;;5071981;28;20374;-82
2022/04/14 09:03:18;;;;;;;6.70;2.03;;;18.60;99.90;;;;;;5070282;28;20416;-79
2022/04/14 09:05:45;;;;;;;5.60;2.23;;;18.50;99.90;;;;;;5071534;28;20512;-81
2022/04/14 09:08:12;;;;;;;4.90;2.40;;;18.40;99.90;;;;;;5066056;28;20390;-79
2022/04/14 09:10:40;;;;;;;5.68;2.08;;;18.40;99.90;;;;;;5071578;28;20443;-82
2022/04/14 09:13:07;;;;;;;5.73;2.30;;;18.40;99.90;;;;;;5066943;28;20954;-81
2022/04/14 09:15:34;;;;;;;5.82;2.30;;;18.30;99.90;;;;;;5060751;28;20404;-78
2022/04/14 09:18:02;;;;;;;6.45;2.40;;;18.30;99.90;;;;;;5051814;28;20463;-79
2022/04/14 09:20:42;;;;;;;6.57;2.50;;;18.20;99.90;;;;;;5071474;28;20370;-83
2022/04/14 09:23:18;;;;;;;7.15;2.50;;;18.20;99.90;;;;;;5062988;28;20384;-83
2022/04/14 09:25:45;;;;;;;5.63;2.25;;;18.10;99.90;;;;;;5051418;28;20445;-79
2022/04/14 09:28:20;;;;;;;4.63;2.05;;;18.00;99.90;;;;;;5051352;28;20418;-79
2022/04/14 09:31:14;;;;;;;5.32;2.03;;;18.00;99.90;;;;;;5051328;28;20368;-79
2022/04/14 09:33:49;;;;;;;5.90;2.00;;;17.90;99.90;;;;;;5049076;28;20395;-80
2022/04/14 09:36:27;;;;;;;5.17;2.03;;;17.80;99.90;;;;;;5063717;28;20564;-83
2022/04/14 09:39:07;;;;;;;5.78;2.10;;;17.70;99.90;;;;;;5051413;28;20374;-82
2022/04/14 09:41:38;;;;;;;4.97;1.90;;;17.70;99.90;;;;;;5058347;28;20390;-81
2022/04/14 09:44:15;;;;;;;5.67;2.03;;;17.60;99.90;;;;;;5067870;28;20409;-81
2022/04/14 09:46:47;;;;;;;4.70;2.47;;;17.60;99.90;;;;;;5071046;28;20905;-81
2022/04/14 09:49:17;;;;;;;6.57;2.20;;;17.50;99.90;;;;;;5070941;28;20374;-83
2022/04/14 09:51:50;;;;;;;7.40;2.78;;;17.50;99.90;;;;;;5037332;28;20491;-83
2022/04/14 09:54:19;;;;;;;6.70;2.40;;;17.50;99.90;;;;;;5052056;28;20396;-83
2022/04/14 09:56:47;;;;;;;5.32;2.33;;;17.50;99.90;;;;;;5033038;28;20376;-84
2022/04/14 09:59:20;;;;;;;5.03;2.13;;;17.40;99.90;;;;;;5050970;28;20375;-79
2022/04/14 10:01:48;;;;;;;4.57;2.53;;;17.40;99.90;;;;;;5051018;28;20426;-84
2022/04/14 10:04:32;;;;;;;6.88;2.20;;;17.40;99.90;;;;;;5050841;28;20426;-84
2022/04/14 10:07:19;;;;;;;7.75;3.20;;;17.50;99.90;;;;;;5050894;28;20429;-80
2022/04/14 10:09:53;;;;;;;5.85;3.03;;;17.50;99.90;;;;;;5059074;28;20403;-79
2022/04/14 10:12:23;;;;;;;4.63;2.63;;;17.60;99.90;;;;;;5052051;28;20377;-82
2022/04/14 10:15:08;;;;;;;4.72;2.30;;;17.60;99.90;;;;;;5050813;28;20372;-79
2022/04/14 10:17:40;;;;;;;3.92;2.33;;;17.70;99.90;;;;;;5066803;28;20390;-80
2022/04/14 10:20:10;;;;;;;6.25;2.50;;;17.70;99.90;;;;;;5057443;28;20388;-84
2022/04/14 10:22:39;;;;;;;5.25;2.20;;;17.60;99.90;;;;;;5060229;28;20389;-83
2022/04/14 10:25:07;;;;;;;6.43;2.43;;;17.70;99.90;;;;;;5063886;28;20778;-82
2022/04/14 10:27:37;;;;;;;4.53;2.10;;;17.70;99.90;;;;;;5063278;28;20386;-82
2022/04/14 10:30:05;;;;;;;6.27;2.27;;;17.60;99.90;;;;;;5070607;28;20950;-80
2022/04/14 10:32:34;;;;;;;4.55;2.20;;;17.60;99.90;;;;;;5062822;28;20390;-81
2022/04/14 10:35:04;;;;;;;4.05;2.05;;;17.60;99.90;;;;;;5057403;28;20372;-82
2022/04/14 10:37:42;;;;;;;5.95;2.55;;;17.70;99.90;;;;;;5061777;28;20936;-82
2022/04/14 10:40:11;;;;;;;4.85;2.50;;;17.70;99.90;;;;;;5070688;28;20374;-79
2022/04/14 10:42:40;;;;;;;7.40;3.00;;;17.70;99.90;;;;;;5068610;28;20815;-83
2022/04/14 10:45:22;;;;;;;7.67;3.07;;;17.80;99.90;;;;;;5070546;28;20427;-81
2022/04/14 10:47:56;;;;;;;7.53;3.08;;;17.80;99.90;;;;;;5070310;28;20465;-79
2022/04/14 10:50:34;;;;;;;6.43;3.00;;;17.90;99.90;;;;;;5069663;28;20884;-79
2022/04/14 10:53:20;;;;;;;7.70;3.40;;;17.90;99.90;;;;;;5049251;28;20407;-79
2022/04/14 10:55:50;;;;;;;8.73;4.13;;;17.90;99.90;;;;;;5050282;28;20410;-79
2022/04/14 10:58:38;;;;;;;7.45;3.85;;;17.90;99.90;;;;;;5050070;28;20740;-82
2022/04/14 11:01:08;;;;;;;8.55;4.53;;;17.90;99.90;;;;;;5050402;28;20445;-80
2022/04/14 11:04:23;;;;;;;9.80;4.82;;;17.90;99.90;;;;;;5056931;28;20451;-79
2022/04/14 11:06:51;;;;;;;7.53;4.10;;;17.90;99.90;;;;;;4988043;28;20451;-79
2022/04/14 11:09:42;;;;;;;8.00;4.30;;;17.80;99.90;;;;;;4988741;28;20421;-82
2022/04/14 11:12:10;;;;;;;7.95;4.10;;;17.80;99.90;;;;;;4988111;28;20428;-84
2022/04/14 11:14:43;;;;;;;7.55;4.10;;;17.70;99.90;;;;;;4989992;28;20392;-84
2022/04/14 11:17:42;;;;;;;7.13;3.92;;;17.70;99.90;;;;;;5009081;28;20375;-84
2022/04/14 11:20:30;;;;;;;6.82;3.50;;;17.70;99.90;;;;;;5006031;28;20888;-84
2022/04/14 11:23:27;;;;;;;7.53;3.90;;;17.70;99.90;;;;;;4991921;28;20416;-83
2022/04/14 11:26:07;;;;;;;6.60;3.70;;;17.70;99.90;;;;;;4916099;29;20415;-78
2022/04/14 11:28:36;;;;;;;7.68;3.80;;;17.80;99.90;;;;;;4915532;29;20407;-80
2022/04/14 11:31:18;;;;;;;9.10;3.83;;;17.80;99.90;;;;;;4914859;29;20919;-82
2022/04/14 11:33:49;;;;;;;8.27;3.40;;;17.80;99.90;;;;;;4914858;29;20399;-80
2022/04/14 11:36:18;;;;;;;5.28;3.15;;;17.80;99.90;;;;;;4914192;29;20407;-83
2022/04/14 11:39:19;;;;;;;7.28;3.50;;;17.80;99.90;;;;;;4915274;29;20379;-81
2022/04/14 11:41:50;;;;;;;6.45;3.13;;;17.80;99.90;;;;;;4915164;28;20916;-78
2022/04/14 11:44:22;;;;;;;9.35;3.22;;;17.80;99.90;;;;;;4967125;28;20408;-82
2022/04/14 11:46:54;;;;;;;5.75;2.90;;;17.90;99.90;;;;;;4952790;28;20412;-82
2022/04/14 11:49:25;;;;;;;5.47;2.80;;;17.90;99.90;;;;;;4953170;29;20392;-82
2022/04/14 11:51:57;;;;;;;7.15;2.72;;;17.90;99.90;;;;;;4958993;28;20449;-82
2022/04/14 11:54:46;;;;;;;7.90;2.85;;;17.90;99.90;;;;;;4962854;28;20420;-82
2022/04/14 11:57:20;;;;;;;7.65;3.10;;;17.90;99.90;;;;;;4952928;28;20792;-84
2022/04/14 11:59:50;;;;;;;6.75;2.83;;;17.80;99.90;;;;;;4969441;28;20395;-84
2022/04/14 12:02:22;;;;;;;10.00;2.72;;;17.90;99.90;;;;;;4999398;28;20946;-81
2022/04/14 12:04:53;;;;;;;9.73;2.70;;;17.80;99.90;;;;;;5064791;28;20400;-84
2022/04/14 12:07:22;;;;;;;6.80;2.70;;;17.70;99.90;;;;;;5073165;28;20485;-80
2022/04/14 12:10:00;;;;;;;8.68;3.50;;;17.70;99.90;;;;;;5072759;28;20362;-82
2022/04/14 12:12:39;;;;;;;7.67;3.60;;;17.60;99.90;;;;;;5072787;28;20695;-82
2022/04/14 12:15:07;;;;;;;13.02;6.05;;;17.50;99.90;;;;;;5072962;28;20749;-80
2022/04/14 12:17:38;;;;;;;14.73;8.07;;;17.40;99.90;;;;;;5072412;28;20776;-83
2022/04/14 12:20:06;;;;;;;20.15;12.02;;;17.30;99.90;;;;;;5072241;28;20394;-82
2022/04/14 12:22:34;;;;;;;17.88;11.73;;;17.20;99.90;;;;;;5072802;28;20707;-83
2022/04/14 12:25:04;;;;;;;16.67;8.73;;;17.10;99.90;;;;;;5072729;28;20382;-82
2022/04/14 12:27:37;;;;;;;15.35;7.85;;;17.00;99.90;;;;;;5071968;28;20459;-83
2022/04/14 12:30:15;;;;;;;17.15;7.32;;;16.90;99.90;;;;;;5072184;28;20401;-82
2022/04/14 12:32:43;;;;;;;11.63;6.30;;;16.80;99.90;;;;;;5070847;28;20382;-80
2022/04/14 12:35:11;;;;;;;13.23;6.10;;;16.70;99.90;;;;;;5072661;28;20470;-83
2022/04/14 12:37:42;;;;;;;11.25;6.20;;;16.70;99.90;;;;;;5072482;28;20406;-82
2022/04/14 12:40:11;;;;;;;11.38;5.97;;;16.60;99.90;;;;;;5072509;28;20374;-79
2022/04/14 12:42:39;;;;;;;12.18;6.22;;;16.50;99.90;;;;;;5069953;28;20385;-80
2022/04/14 12:45:17;;;;;;;9.88;5.70;;;16.40;99.90;;;;;;5072085;28;20370;-82
2022/04/14 12:47:46;;;;;;;12.07;5.18;;;16.40;99.90;;;;;;5052629;28;20499;-79
2022/04/14 12:50:19;;;;;;;11.00;4.60;;;16.40;99.90;;;;;;5052391;28;20360;-82
2022/04/14 12:52:55;;;;;;;9.43;4.40;;;16.30;99.90;;;;;;5040001;28;20731;-83
2022/04/14 12:55:27;;;;;;;11.27;4.40;;;16.30;99.90;;;;;;5070395;28;20382;-83
2022/04/14 12:58:10;;;;;;;9.40;3.92;;;16.30;99.90;;;;;;5067303;28;20435;-80
2022/04/14 13:00:38;;;;;;;10.77;3.90;;;16.30;99.90;;;;;;5064257;28;20416;-81